Time;durP1;ratioP1;P1;durP2;ratioP2;P2;SDS_P1;SDS_P2;PMS_P1;PMS_P2;Temp;Humidity;BMP_temperature;BMP_pressure;BME280_temperature;BME280_humidity;BME280_pressure;Samples;Min_cycle;Max_cycle;Signal;HPM_P1;HPM_P2
2021/09/11 01:10:38;;;;;;;10.88;7.75;;;19.00;90.80;;;;;;6222637;22;20024;-89
2021/09/11 01:13:03;;;;;;;9.70;7.25;;;19.00;90.80;;;;;;6246434;23;20016;-86
2021/09/11 01:15:34;;;;;;;10.65;7.15;;;19.00;90.70;;;;;;6248050;22;20506;-88
2021/09/11 01:18:01;;;;;;;11.95;7.55;;;19.00;90.90;;;;;;6250290;22;20000;-88
2021/09/11 01:20:27;;;;;;;9.43;7.38;;;19.00;91.00;;;;;;6255347;22;20017;-89
2021/09/11 01:22:53;;;;;;;13.30;7.40;;;19.00;91.00;;;;;;6248283;22;20004;-86
2021/09/11 01:25:19;;;;;;;10.98;7.50;;;19.10;91.00;;;;;;6248253;22;20050;-89
2021/09/11 01:27:45;;;;;;;12.45;8.02;;;19.00;90.70;;;;;;6247817;22;20374;-90
2021/09/11 01:30:13;;;;;;;12.82;7.20;;;19.00;90.70;;;;;;6247578;22;19996;-89
2021/09/11 01:32:39;;;;;;;10.07;7.60;;;19.00;91.00;;;;;;6247977;22;20078;-87
2021/09/11 01:35:05;;;;;;;13.98;7.20;;;19.00;91.20;;;;;;6248089;23;19992;-86
2021/09/11 01:37:31;;;;;;;10.82;8.05;;;19.00;91.30;;;;;;6247792;22;20334;-90
2021/09/11 01:39:57;;;;;;;9.77;7.93;;;18.90;91.20;;;;;;6247418;23;20012;-88
2021/09/11 01:42:25;;;;;;;9.73;7.45;;;18.90;91.30;;;;;;6246673;23;20004;-89
2021/09/11 01:44:58;;;;;;;12.25;8.20;;;18.80;91.40;;;;;;6247063;22;20000;-90
2021/09/11 01:47:24;;;;;;;16.00;7.43;;;18.80;91.00;;;;;;6253409;22;20000;-86
2021/09/11 01:49:50;;;;;;;10.55;7.47;;;18.80;90.60;;;;;;6256181;23;20450;-90
2021/09/11 01:52:15;;;;;;;15.48;7.97;;;18.80;90.70;;;;;;6246772;23;20016;-85
2021/09/11 01:54:42;;;;;;;13.85;7.72;;;18.80;90.80;;;;;;6245526;23;20004;-85
2021/09/11 01:57:10;;;;;;;11.40;7.70;;;18.80;90.80;;;;;;6246809;22;20007;-87
2021/09/11 01:59:36;;;;;;;10.93;8.13;;;18.70;90.80;;;;;;6245109;23;20397;-89
2021/09/11 02:02:04;;;;;;;11.02;7.88;;;18.70;91.00;;;;;;6246498;22;20457;-86
2021/09/11 02:04:30;;;;;;;9.38;7.75;;;18.70;91.10;;;;;;6246610;22;20509;-88
2021/09/11 02:06:56;;;;;;;10.77;8.05;;;18.70;90.90;;;;;;6246808;22;20000;-89
2021/09/11 02:09:22;;;;;;;9.52;7.55;;;18.70;90.90;;;;;;6246135;22;20402;-90
2021/09/11 02:11:47;;;;;;;16.88;8.10;;;18.60;90.80;;;;;;6244927;23;20087;-86
2021/09/11 02:14:13;;;;;;;10.63;8.13;;;18.60;91.00;;;;;;6245044;23;20020;-90
2021/09/11 02:16:39;;;;;;;11.80;7.97;;;18.60;91.10;;;;;;6245830;23;19996;-83
2021/09/11 02:19:04;;;;;;;11.85;8.23;;;18.60;91.10;;;;;;6246559;22;20075;-86
2021/09/11 02:21:30;;;;;;;12.73;8.20;;;18.60;91.10;;;;;;6246165;23;19996;-87
2021/09/11 02:23:56;;;;;;;11.77;7.05;;;18.60;90.90;;;;;;6244906;23;20020;-90
2021/09/11 02:26:22;;;;;;;12.48;8.52;;;18.60;90.90;;;;;;6246314;22;20004;-89
2021/09/11 02:28:47;;;;;;;10.75;7.38;;;18.50;90.90;;;;;;6253689;23;20007;-90
2021/09/11 02:31:13;;;;;;;9.93;7.43;;;18.50;90.90;;;;;;6246806;23;20046;-88
2021/09/11 02:33:39;;;;;;;12.82;8.18;;;18.60;90.90;;;;;;6246101;23;20000;-88
2021/09/11 02:36:05;;;;;;;13.90;7.65;;;18.50;91.10;;;;;;6246157;22;19996;-89
2021/09/11 02:38:31;;;;;;;15.57;7.72;;;18.50;91.20;;;;;;6246036;22;20016;-88
2021/09/11 02:40:57;;;;;;;9.93;7.75;;;18.40;91.50;;;;;;6246523;22;20010;-89
2021/09/11 02:43:23;;;;;;;9.38;7.78;;;18.50;91.50;;;;;;6246188;23;20028;-87
2021/09/11 02:45:48;;;;;;;13.57;7.72;;;18.50;91.70;;;;;;6245868;23;20130;-86
2021/09/11 02:48:14;;;;;;;13.90;8.10;;;18.50;91.80;;;;;;6246122;22;20032;-82
2021/09/11 02:50:40;;;;;;;13.20;8.52;;;18.50;91.80;;;;;;6245021;23;19996;-88
2021/09/11 02:53:06;;;;;;;14.70;7.72;;;18.50;91.80;;;;;;6246146;22;20011;-83
2021/09/11 02:55:31;;;;;;;12.15;7.95;;;18.40;91.80;;;;;;6246083;23;20004;-85
2021/09/11 02:57:57;;;;;;;14.13;7.72;;;18.40;91.80;;;;;;6246175;23;20091;-89
2021/09/11 03:00:22;;;;;;;11.98;8.27;;;18.40;91.60;;;;;;6249524;23;20004;-89
2021/09/11 03:02:48;;;;;;;10.85;8.07;;;18.30;91.60;;;;;;6247125;23;20004;-86
2021/09/11 03:05:14;;;;;;;10.43;8.10;;;18.30;91.90;;;;;;6246731;23;20040;-90
2021/09/11 03:07:39;;;;;;;13.98;7.97;;;18.30;91.90;;;;;;6247000;23;19996;-90
2021/09/11 03:10:05;;;;;;;12.57;7.45;;;18.30;92.00;;;;;;6247225;23;20020;-89
2021/09/11 03:12:31;;;;;;;15.07;8.30;;;18.30;92.10;;;;;;6248413;22;20008;-88
2021/09/11 03:14:57;;;;;;;14.13;8.38;;;18.30;92.00;;;;;;6247104;23;20032;-89
2021/09/11 03:17:22;;;;;;;10.93;7.95;;;18.20;92.00;;;;;;6246952;23;20012;-88
2021/09/11 03:19:48;;;;;;;18.02;7.82;;;18.20;91.90;;;;;;6246283;23;20127;-90
2021/09/11 03:22:14;;;;;;;13.00;7.88;;;18.20;91.80;;;;;;6245585;23;19996;-87
2021/09/11 03:24:40;;;;;;;14.27;7.97;;;18.20;91.90;;;;;;6245950;23;20330;-90
2021/09/11 03:27:06;;;;;;;14.90;8.38;;;18.10;92.10;;;;;;6246459;23;20000;-88
2021/09/11 03:29:31;;;;;;;12.50;7.95;;;18.00;92.40;;;;;;6247985;22;20079;-88
2021/09/11 03:31:57;;;;;;;15.07;8.80;;;18.00;92.70;;;;;;6247590;23;20038;-90
2021/09/11 03:34:23;;;;;;;8.82;7.40;;;17.90;92.80;;;;;;6247525;23;20008;-88
2021/09/11 03:36:48;;;;;;;13.32;8.05;;;17.90;92.80;;;;;;6250829;23;20068;-88
2021/09/11 03:39:14;;;;;;;11.35;7.65;;;17.80;93.00;;;;;;6253629;23;20047;-89
2021/09/11 03:41:40;;;;;;;11.82;7.68;;;17.80;92.90;;;;;;6248147;23;20085;-89
2021/09/11 03:44:06;;;;;;;13.77;8.65;;;17.80;92.80;;;;;;6251316;23;20034;-90
2021/09/11 03:46:32;;;;;;;16.98;9.18;;;17.70;93.10;;;;;;6251454;22;20007;-90
2021/09/11 03:48:58;;;;;;;13.48;8.15;;;17.70;93.20;;;;;;6250019;22;20000;-88
2021/09/11 03:51:23;;;;;;;11.43;8.25;;;17.70;92.80;;;;;;6250277;22;19997;-88
2021/09/11 03:53:49;;;;;;;13.93;8.00;;;17.70;92.90;;;;;;6250935;23;20020;-89
2021/09/11 03:56:14;;;;;;;14.27;7.90;;;17.60;92.80;;;;;;6251920;23;19992;-90
2021/09/11 03:58:40;;;;;;;11.77;7.97;;;17.60;92.40;;;;;;6251535;23;20012;-84
2021/09/11 04:01:06;;;;;;;15.38;7.72;;;17.60;92.60;;;;;;6248777;23;20011;-88
2021/09/11 04:03:32;;;;;;;9.60;7.85;;;17.60;92.70;;;;;;6248471;22;20015;-90
2021/09/11 04:05:59;;;;;;;13.63;7.47;;;17.60;92.70;;;;;;6248269;22;20023;-89
2021/09/11 04:08:25;;;;;;;13.75;8.60;;;17.50;92.60;;;;;;6248473;22;20015;-90
2021/09/11 04:10:51;;;;;;;12.68;8.70;;;17.50;92.80;;;;;;6248158;22;20447;-87
2021/09/11 04:13:17;;;;;;;16.60;8.32;;;17.40;93.00;;;;;;6248253;22;20007;-86
2021/09/11 04:15:43;;;;;;;10.45;8.60;;;17.40;93.20;;;;;;6248459;22;20004;-90
2021/09/11 04:18:10;;;;;;;15.90;8.43;;;17.40;93.00;;;;;;6248641;22;20011;-90
2021/09/11 04:20:35;;;;;;;14.50;8.55;;;17.40;92.80;;;;;;6248273;22;20007;-90
2021/09/11 04:23:01;;;;;;;9.80;7.22;;;17.40;92.70;;;;;;6248504;23;20075;-90
2021/09/11 04:25:27;;;;;;;11.90;7.90;;;17.40;92.30;;;;;;6247915;23;20004;-90
2021/09/11 04:27:53;;;;;;;9.70;7.68;;;17.40;92.20;;;;;;6248146;23;20000;-89
2021/09/11 04:30:18;;;;;;;10.10;8.20;;;17.50;91.70;;;;;;6247997;23;20040;-89
2021/09/11 04:32:44;;;;;;;12.05;8.15;;;17.60;91.60;;;;;;6248000;22;19999;-89
2021/09/11 04:35:10;;;;;;;12.38;7.60;;;17.60;91.30;;;;;;6248280;23;20008;-89
2021/09/11 04:37:36;;;;;;;20.67;7.45;;;17.60;91.10;;;;;;6248228;23;19996;-89
2021/09/11 04:40:02;;;;;;;14.30;7.60;;;17.70;91.00;;;;;;6247390;22;20481;-85
2021/09/11 04:42:27;;;;;;;15.88;8.32;;;17.70;91.00;;;;;;6248048;22;20000;-87
2021/09/11 04:44:53;;;;;;;10.40;7.70;;;17.70;91.10;;;;;;6247825;23;20381;-90
2021/09/11 04:47:19;;;;;;;9.05;7.60;;;17.60;91.30;;;;;;6254076;23;20056;-88
2021/09/11 04:49:44;;;;;;;14.02;7.80;;;17.60;91.50;;;;;;6252847;22;20000;-90
2021/09/11 04:52:10;;;;;;;10.07;7.65;;;17.60;91.70;;;;;;6247798;23;20479;-88
2021/09/11 04:54:36;;;;;;;13.07;8.02;;;17.60;92.20;;;;;;6248212;22;20000;-89
2021/09/11 04:57:01;;;;;;;13.13;8.40;;;17.70;92.50;;;;;;6246467;23;20439;-89
2021/09/11 04:59:27;;;;;;;16.88;9.05;;;17.70;92.40;;;;;;6250502;22;20012;-86
2021/09/11 05:01:53;;;;;;;15.32;8.50;;;17.60;92.50;;;;;;6252900;23;20437;-87
2021/09/11 05:04:19;;;;;;;13.27;8.20;;;17.70;92.70;;;;;;6248660;23;20019;-87
2021/09/11 05:06:44;;;;;;;12.35;7.80;;;17.60;92.20;;;;;;6246287;23;20050;-89
2021/09/11 05:09:10;;;;;;;16.45;7.80;;;17.60;92.50;;;;;;6247691;23;20145;-88
2021/09/11 05:11:36;;;;;;;12.23;8.48;;;17.80;92.50;;;;;;6247974;23;20075;-89
2021/09/11 05:14:02;;;;;;;14.25;7.70;;;18.00;92.00;;;;;;6247686;23;20011;-89
2021/09/11 05:16:28;;;;;;;11.15;7.45;;;18.40;91.30;;;;;;6247728;22;20323;-88
2021/09/11 05:18:53;;;;;;;13.57;7.45;;;19.00;90.70;;;;;;6247516;23;20008;-83
2021/09/11 05:21:19;;;;;;;9.18;6.55;;;19.70;88.90;;;;;;6247592;23;20433;-91
2021/09/11 05:23:45;;;;;;;15.30;7.75;;;20.20;86.50;;;;;;6247531;23;20004;-90
2021/09/11 05:26:10;;;;;;;13.35;6.80;;;20.60;85.60;;;;;;6246388;23;20004;-90
2021/09/11 05:28:36;;;;;;;11.05;6.78;;;21.30;83.60;;;;;;6247430;23;20083;-88
2021/09/11 05:31:02;;;;;;;8.77;6.70;;;21.70;82.20;;;;;;6247509;23;20407;-91
2021/09/11 05:33:27;;;;;;;13.60;7.07;;;22.40;80.80;;;;;;6246629;23;20098;-90
2021/09/11 05:35:53;;;;;;;20.33;6.72;;;23.50;78.90;;;;;;6247758;22;20012;-90
2021/09/11 05:38:19;;;;;;;17.80;6.97;;;24.40;76.70;;;;;;6247224;22;20004;-90
2021/09/11 05:40:45;;;;;;;8.05;6.53;;;25.20;75.10;;;;;;6246833;23;20483;-87
2021/09/11 05:43:10;;;;;;;14.43;6.80;;;25.80;73.70;;;;;;6246552;22;20023;-90
2021/09/11 05:45:36;;;;;;;14.25;6.95;;;26.50;72.50;;;;;;6246995;22;20305;-85
2021/09/11 05:48:02;;;;;;;16.00;6.80;;;27.10;71.10;;;;;;6246345;23;20054;-87
2021/09/11 05:50:28;;;;;;;11.40;7.00;;;27.60;70.30;;;;;;6246439;23;20008;-90
2021/09/11 05:52:54;;;;;;;13.45;6.20;;;27.60;69.70;;;;;;6246386;23;20411;-91
2021/09/11 05:55:19;;;;;;;11.98;6.93;;;27.80;69.60;;;;;;6245182;23;20011;-91
2021/09/11 05:57:45;;;;;;;10.68;6.20;;;27.40;69.20;;;;;;6247379;23;20008;-90
2021/09/11 06:00:11;;;;;;;11.07;6.65;;;27.00;69.90;;;;;;6246316;23;20446;-91
2021/09/11 06:02:37;;;;;;;9.93;5.90;;;27.00;70.80;;;;;;6246810;22;20075;-92
2021/09/11 06:05:03;;;;;;;19.80;7.05;;;27.50;70.30;;;;;;6245882;23;20015;-88
2021/09/11 06:07:29;;;;;;;12.60;5.35;;;28.30;69.00;;;;;;6246470;22;20407;-92
2021/09/11 06:09:54;;;;;;;8.57;6.30;;;29.30;67.70;;;;;;6246323;23;20078;-93
2021/09/11 06:12:20;;;;;;;7.88;5.07;;;30.20;65.20;;;;;;6246420;23;19999;-92
2021/09/11 06:14:46;;;;;;;6.85;5.00;;;31.20;64.30;;;;;;6246654;23;20031;-88
2021/09/11 06:17:12;;;;;;;15.10;5.25;;;32.10;62.40;;;;;;6246638;23;20049;-86
2021/09/11 06:19:37;;;;;;;10.27;5.38;;;32.80;61.50;;;;;;6246204;22;20378;-88
2021/09/11 06:22:03;;;;;;;18.30;5.28;;;33.10;59.90;;;;;;6246319;23;19996;-83
2021/09/11 06:24:29;;;;;;;14.40;5.40;;;33.40;59.70;;;;;;6246524;22;20001;-85
2021/09/11 06:26:55;;;;;;;9.00;4.88;;;34.00;59.20;;;;;;6244803;23;20012;-89
2021/09/11 06:29:21;;;;;;;8.23;5.00;;;34.50;58.70;;;;;;6246722;22;20007;-92
2021/09/11 06:31:47;;;;;;;10.05;4.60;;;35.10;57.70;;;;;;6219359;23;20370;-89
2021/09/11 06:34:13;;;;;;;11.43;4.97;;;35.60;57.10;;;;;;6246191;22;20004;-87
2021/09/11 06:36:38;;;;;;;11.38;4.75;;;36.00;56.60;;;;;;6245941;23;19992;-86
2021/09/11 06:39:04;;;;;;;9.82;4.10;;;36.10;56.30;;;;;;6246499;22;20077;-89
2021/09/11 06:41:30;;;;;;;12.60;4.57;;;36.10;56.40;;;;;;6246391;23;20071;-86
2021/09/11 06:43:55;;;;;;;8.90;4.88;;;36.40;56.60;;;;;;6246086;23;20431;-89
2021/09/11 06:46:21;;;;;;;6.30;4.13;;;36.80;55.00;;;;;;6246815;23;20100;-90
2021/09/11 06:48:47;;;;;;;13.77;4.97;;;37.30;55.10;;;;;;6246251;23;20054;-88
2021/09/11 06:51:14;;;;;;;16.08;4.50;;;37.90;54.50;;;;;;6247784;23;19996;-91
2021/09/11 06:53:39;;;;;;;6.68;4.15;;;38.50;53.80;;;;;;6244884;23;20095;-86
2021/09/11 06:56:05;;;;;;;9.60;4.35;;;39.30;53.00;;;;;;6244380;23;20043;-90
2021/09/11 06:58:31;;;;;;;15.25;4.28;;;39.80;52.40;;;;;;6246213;23;20062;-88
2021/09/11 07:00:56;;;;;;;12.57;4.20;;;40.40;52.00;;;;;;6246039;22;20055;-90
2021/09/11 07:03:22;;;;;;;6.45;3.90;;;40.60;51.20;;;;;;6245905;23;20011;-88
2021/09/11 07:05:48;;;;;;;8.77;3.53;;;40.80;51.40;;;;;;6249469;23;20003;-86
2021/09/11 07:08:14;;;;;;;8.15;3.80;;;41.20;50.60;;;;;;6248229;23;20003;-88
2021/09/11 07:10:42;;;;;;;7.22;3.85;;;41.70;49.80;;;;;;6244284;23;20059;-92
2021/09/11 07:13:07;;;;;;;7.53;3.72;;;41.80;49.90;;;;;;6246246;22;20308;-90
2021/09/11 07:15:33;;;;;;;10.57;4.07;;;41.80;49.80;;;;;;6246534;23;20008;-91
2021/09/11 07:17:59;;;;;;;7.75;4.07;;;41.80;49.90;;;;;;6245964;22;20067;-91
2021/09/11 07:20:25;;;;;;;16.23;4.22;;;41.70;50.20;;;;;;6249236;22;20001;-92
2021/09/11 07:22:51;;;;;;;13.07;4.10;;;41.90;49.90;;;;;;6251642;22;19996;-93
2021/09/11 07:25:18;;;;;;;11.48;4.57;;;42.00;49.30;;;;;;6248994;23;20016;-90
2021/09/11 07:27:44;;;;;;;14.27;4.88;;;42.00;49.40;;;;;;6247142;22;20015;-82
2021/09/11 07:30:10;;;;;;;27.00;5.38;;;42.30;49.40;;;;;;6246042;23;20010;-91
2021/09/11 07:32:36;;;;;;;5.80;4.50;;;42.40;49.10;;;;;;6246761;22;20360;-96
2021/09/11 07:35:01;;;;;;;8.63;4.28;;;42.70;48.90;;;;;;6247998;23;20038;-94
2021/09/11 07:40:49;;;;;;;9.90;4.75;;;43.50;48.20;;;;;;6246673;23;20023;-92
2021/09/11 07:43:14;;;;;;;17.65;4.00;;;44.00;47.60;;;;;;6248021;23;20027;-93
2021/09/11 07:45:40;;;;;;;14.35;4.25;;;44.30;47.40;;;;;;6247140;23;19996;-90
2021/09/11 07:48:06;;;;;;;21.02;4.25;;;44.40;47.20;;;;;;6246458;23;20004;-88
2021/09/11 07:50:35;;;;;;;10.75;3.97;;;44.40;47.20;;;;;;6248212;22;20011;-91
2021/09/11 07:53:03;;;;;;;12.70;4.00;;;44.50;47.30;;;;;;6246698;22;20488;-90
2021/09/11 07:55:29;;;;;;;9.88;3.58;;;44.30;47.70;;;;;;6246569;22;20050;-91
2021/09/11 07:57:56;;;;;;;10.27;4.25;;;44.40;48.10;;;;;;6245794;22;20000;-88
2021/09/11 08:00:22;;;;;;;17.92;4.10;;;44.70;48.20;;;;;;6245792;22;20009;-93
2021/09/11 08:02:47;;;;;;;8.88;3.47;;;44.90;48.60;;;;;;6246691;22;20058;-92
2021/09/11 08:05:13;;;;;;;16.33;4.25;;;44.90;49.00;;;;;;6246542;23;20032;-90
2021/09/11 08:07:39;;;;;;;7.95;3.75;;;44.70;49.40;;;;;;6251701;22;20004;-87
2021/09/11 08:10:05;;;;;;;7.45;3.75;;;44.90;49.20;;;;;;6256779;22;20019;-88
2021/09/11 08:12:31;;;;;;;6.03;3.50;;;45.00;49.10;;;;;;6247656;22;19996;-90
2021/09/11 08:14:58;;;;;;;9.18;3.70;;;45.10;48.80;;;;;;6251898;23;20010;-83
2021/09/11 08:17:24;;;;;;;9.75;3.55;;;45.50;48.60;;;;;;6249133;23;20105;-92
2021/09/11 08:19:50;;;;;;;18.67;3.92;;;45.50;48.10;;;;;;6248451;22;20008;-92
2021/09/11 08:22:17;;;;;;;7.65;3.83;;;45.60;48.10;;;;;;6248581;22;19996;-93
2021/09/11 08:24:43;;;;;;;7.47;3.35;;;45.70;47.40;;;;;;6248954;22;20011;-92
2021/09/11 08:27:09;;;;;;;7.15;3.40;;;45.90;47.50;;;;;;6248332;22;20036;-95
2021/09/11 08:29:35;;;;;;;7.32;3.40;;;45.90;47.30;;;;;;6248338;22;20000;-93
2021/09/11 08:32:03;;;;;;;4.75;3.25;;;45.90;47.50;;;;;;6247657;22;20004;-83
2021/09/11 08:34:29;;;;;;;8.57;4.13;;;46.10;47.40;;;;;;6248267;22;20012;-90
2021/09/11 08:36:57;;;;;;;7.15;3.50;;;46.20;48.20;;;;;;6249151;22;19992;-84
2021/09/11 08:39:24;;;;;;;16.33;3.40;;;46.40;47.60;;;;;;6249688;22;20016;-94
2021/09/11 08:41:51;;;;;;;7.18;3.13;;;46.90;47.50;;;;;;6248590;22;20078;-95
2021/09/11 08:44:17;;;;;;;8.55;3.95;;;47.30;46.60;;;;;;6248145;22;20000;-83
2021/09/11 08:46:43;;;;;;;7.93;3.17;;;47.30;46.40;;;;;;6248367;23;20045;-90
2021/09/11 08:49:10;;;;;;;5.07;3.17;;;47.40;46.50;;;;;;6248430;22;20035;-93
2021/09/11 08:51:36;;;;;;;8.60;3.03;;;47.40;46.10;;;;;;6248595;22;20000;-92
2021/09/11 08:54:02;;;;;;;8.60;3.28;;;47.70;46.00;;;;;;6247181;23;20036;-90
2021/09/11 08:56:28;;;;;;;5.00;3.00;;;48.00;46.00;;;;;;6248803;22;20003;-90
2021/09/11 08:59:10;;;;;;;4.95;3.28;;;47.90;46.00;;;;;;6248575;23;20012;-90
2021/09/11 09:01:36;;;;;;;11.02;3.40;;;47.90;45.80;;;;;;6248888;22;20095;-89
2021/09/11 09:04:02;;;;;;;11.18;3.00;;;47.70;46.40;;;;;;6248533;22;20442;-94
2021/09/11 09:06:30;;;;;;;6.38;3.30;;;47.70;45.90;;;;;;6252052;22;20068;-93
2021/09/11 09:09:19;;;;;;;6.85;3.38;;;47.80;46.80;;;;;;6260266;23;20031;-92
2021/09/11 09:11:45;;;;;;;6.60;3.28;;;48.00;45.80;;;;;;6267506;22;19980;-88
2021/09/11 09:14:17;;;;;;;9.23;3.30;;;47.70;45.60;;;;;;6260030;22;20003;-95
2021/09/11 09:16:45;;;;;;;8.85;3.25;;;47.50;45.70;;;;;;6266119;22;19984;-92
2021/09/11 09:19:11;;;;;;;13.35;3.40;;;47.40;46.10;;;;;;6254054;22;20010;-91
2021/09/11 09:21:38;;;;;;;8.63;3.53;;;47.30;46.30;;;;;;6246755;23;20033;-90
2021/09/11 09:24:06;;;;;;;4.80;3.45;;;47.30;46.50;;;;;;6253332;22;20004;-90
2021/09/11 09:27:14;;;;;;;6.93;3.33;;;47.30;46.50;;;;;;6253529;22;20000;-95
2021/09/11 09:29:41;;;;;;;6.15;3.45;;;47.20;46.30;;;;;;6242658;22;20343;-92
2021/09/11 09:32:07;;;;;;;6.72;3.95;;;46.50;46.40;;;;;;6248068;22;20323;-93
2021/09/11 09:34:42;;;;;;;10.88;4.00;;;45.50;46.90;;;;;;6251360;22;20003;-93
2021/09/11 09:37:10;;;;;;;8.70;4.07;;;43.80;47.90;;;;;;6250247;22;20004;-90
2021/09/11 09:39:54;;;;;;;9.75;4.55;;;41.90;49.80;;;;;;6250024;22;20095;-96
2021/09/11 09:42:20;;;;;;;8.93;4.40;;;39.50;52.20;;;;;;6248815;23;20023;-93
2021/09/11 09:44:54;;;;;;;13.95;4.78;;;37.90;54.00;;;;;;6249617;22;20012;-88
2021/09/11 09:47:23;;;;;;;9.20;4.53;;;36.60;54.90;;;;;;6246589;23;20087;-86
2021/09/11 09:50:09;;;;;;;10.85;4.97;;;35.50;56.40;;;;;;6246369;23;20093;-90
2021/09/11 09:52:36;;;;;;;5.50;4.65;;;34.50;58.30;;;;;;6247461;22;20393;-93
2021/09/11 09:55:03;;;;;;;8.85;4.93;;;34.00;59.80;;;;;;6254727;22;20054;-90
2021/09/11 09:57:30;;;;;;;12.18;4.90;;;33.40;61.20;;;;;;6258807;22;20000;-96
2021/09/11 09:59:59;;;;;;;15.07;5.03;;;32.80;61.60;;;;;;6247381;23;20024;-90
2021/09/11 10:02:25;;;;;;;7.22;5.20;;;32.30;62.00;;;;;;6247237;22;19992;-85
2021/09/11 10:04:51;;;;;;;10.57;5.38;;;31.90;62.80;;;;;;6247786;23;20415;-83
2021/09/11 10:07:21;;;;;;;12.07;5.47;;;31.80;62.60;;;;;;6247811;23;20000;-91
2021/09/11 10:09:50;;;;;;;9.82;4.90;;;31.80;63.60;;;;;;6246795;22;20020;-89
2021/09/11 10:12:42;;;;;;;12.00;5.60;;;31.70;65.50;;;;;;6247787;22;19997;-88
2021/09/11 10:15:26;;;;;;;11.18;5.40;;;31.60;65.30;;;;;;6246485;22;20023;-88
2021/09/11 10:17:52;;;;;;;7.07;5.03;;;31.50;66.20;;;;;;6246008;22;20012;-88
2021/09/11 10:20:19;;;;;;;6.28;4.70;;;31.50;66.20;;;;;;6246350;22;20521;-89
2021/09/11 10:23:07;;;;;;;7.95;5.20;;;31.50;66.40;;;;;;6251907;22;20004;-87
2021/09/11 10:25:46;;;;;;;7.40;4.82;;;31.40;66.70;;;;;;6247567;22;20494;-87
2021/09/11 10:28:24;;;;;;;13.73;5.40;;;31.10;66.60;;;;;;6249966;22;20023;-91
2021/09/11 10:31:08;;;;;;;10.05;4.85;;;30.90;66.70;;;;;;6248365;22;20083;-95
2021/09/11 10:33:52;;;;;;;15.02;5.20;;;30.60;67.20;;;;;;6254293;22;20000;-91
2021/09/11 10:36:21;;;;;;;8.63;5.18;;;30.70;67.20;;;;;;6249325;22;20327;-93
2021/09/11 10:38:51;;;;;;;7.45;5.10;;;30.40;66.70;;;;;;6247907;22;20100;-91
2021/09/11 10:41:17;;;;;;;8.45;5.13;;;30.20;69.20;;;;;;6247944;22;20453;-92
2021/09/11 10:44:07;;;;;;;7.30;5.03;;;30.10;69.10;;;;;;6247759;22;20457;-91
2021/09/11 10:46:52;;;;;;;10.57;5.57;;;30.00;69.30;;;;;;6247947;22;20019;-94
2021/09/11 10:49:28;;;;;;;15.52;4.72;;;30.00;69.00;;;;;;6248010;22;20000;-88
2021/09/11 10:52:11;;;;;;;7.90;4.63;;;29.90;68.90;;;;;;6248078;22;20079;-91
2021/09/11 10:54:44;;;;;;;9.02;5.25;;;29.80;68.90;;;;;;6249249;22;20022;-89
2021/09/11 10:57:18;;;;;;;10.40;4.70;;;29.70;69.40;;;;;;6254302;22;20004;-94
2021/09/11 11:00:21;;;;;;;8.63;4.68;;;29.70;69.70;;;;;;6262010;23;20020;-90
2021/09/11 11:02:47;;;;;;;8.68;4.68;;;29.60;69.90;;;;;;6255844;23;20376;-88
2021/09/11 11:05:20;;;;;;;11.48;5.35;;;29.50;68.80;;;;;;6254415;23;20004;-86
2021/09/11 11:08:07;;;;;;;7.93;5.10;;;29.30;70.20;;;;;;6197983;23;20067;-85
2021/09/11 11:10:33;;;;;;;8.23;4.72;;;29.20;68.50;;;;;;6253439;23;20020;-95
2021/09/11 11:13:02;;;;;;;7.82;4.90;;;29.10;65.40;;;;;;6252744;22;20081;-84
2021/09/11 11:15:28;;;;;;;11.52;5.60;;;29.00;67.10;;;;;;6246538;23;20000;-85
2021/09/11 11:17:54;;;;;;;16.48;5.13;;;29.00;68.50;;;;;;6245922;22;20006;-82
2021/09/11 11:20:25;;;;;;;10.25;5.43;;;29.00;69.40;;;;;;6245942;22;20036;-84
2021/09/11 11:22:52;;;;;;;6.75;5.28;;;29.00;68.20;;;;;;6246044;22;20004;-85
2021/09/11 11:25:39;;;;;;;10.07;5.50;;;29.20;67.50;;;;;;6245903;22;20020;-86
2021/09/11 11:28:07;;;;;;;11.73;4.95;;;29.30;66.50;;;;;;6245810;22;20000;-83
2021/09/11 11:30:36;;;;;;;12.95;5.47;;;29.50;65.90;;;;;;6245747;22;20007;-82
2021/09/11 11:33:04;;;;;;;17.95;5.82;;;29.60;66.30;;;;;;6245556;22;20012;-79
2021/09/11 11:35:30;;;;;;;14.70;5.43;;;29.70;65.90;;;;;;6244332;23;20095;-84
2021/09/11 11:37:57;;;;;;;6.78;4.88;;;29.60;66.80;;;;;;6245686;22;20402;-83
2021/09/11 11:40:23;;;;;;;8.75;5.78;;;29.60;65.30;;;;;;6245873;22;20024;-83
2021/09/11 11:42:48;;;;;;;7.85;4.93;;;29.40;65.50;;;;;;6245820;22;19997;-81
2021/09/11 11:45:16;;;;;;;9.32;5.03;;;29.20;62.50;;;;;;6245939;23;20078;-84
2021/09/11 11:48:08;;;;;;;10.68;5.47;;;28.90;60.70;;;;;;6244256;23;20054;-83
2021/09/11 11:50:36;;;;;;;14.38;7.20;;;28.60;63.20;;;;;;6247787;22;20331;-83
2021/09/11 11:53:11;;;;;;;12.63;9.07;;;28.50;63.90;;;;;;6247817;22;20073;-83
2021/09/11 11:55:41;;;;;;;7.05;5.80;;;28.50;63.60;;;;;;6247862;22;20071;-84
2021/09/11 11:58:12;;;;;;;10.13;6.78;;;28.50;63.20;;;;;;6247708;22;20323;-83
2021/09/11 12:00:52;;;;;;;14.00;5.25;;;28.60;64.60;;;;;;6247617;22;20004;-82
2021/09/11 12:03:44;;;;;;;8.07;5.00;;;28.50;65.50;;;;;;6247478;23;20000;-85
2021/09/11 12:06:25;;;;;;;17.42;5.47;;;28.40;68.80;;;;;;6247447;22;20491;-83
2021/09/11 12:08:51;;;;;;;12.43;6.07;;;28.30;69.40;;;;;;6247847;22;20007;-86
2021/09/11 12:11:20;;;;;;;13.15;7.45;;;28.30;65.90;;;;;;6247660;22;20004;-86
2021/09/11 12:13:48;;;;;;;13.00;8.77;;;28.20;65.70;;;;;;6247568;22;20023;-86
2021/09/11 12:16:15;;;;;;;11.73;5.50;;;28.20;66.90;;;;;;6247706;22;20439;-81
2021/09/11 12:18:41;;;;;;;9.35;6.05;;;28.10;67.10;;;;;;6248223;22;20036;-87
2021/09/11 12:21:14;;;;;;;13.88;7.18;;;28.00;69.00;;;;;;6248385;22;20056;-92
2021/09/11 12:23:48;;;;;;;7.68;6.25;;;28.10;68.50;;;;;;6248214;22;20082;-80
2021/09/11 12:26:15;;;;;;;8.98;6.38;;;27.90;72.80;;;;;;6248412;22;20326;-86
2021/09/11 12:28:48;;;;;;;8.10;6.40;;;27.80;70.90;;;;;;6248233;22;20004;-82
2021/09/11 12:31:22;;;;;;;11.65;6.57;;;27.80;71.70;;;;;;6248086;22;20083;-83
2021/09/11 12:34:01;;;;;;;17.25;5.75;;;27.80;73.10;;;;;;6245859;23;20430;-85
2021/09/11 12:36:30;;;;;;;7.80;5.60;;;27.80;72.70;;;;;;6247896;22;20098;-85
2021/09/11 12:38:59;;;;;;;7.38;5.47;;;27.70;73.30;;;;;;6245879;23;20069;-86
2021/09/11 12:41:25;;;;;;;11.32;6.13;;;27.70;74.50;;;;;;6247336;22;20304;-86
2021/09/11 12:43:51;;;;;;;10.75;6.55;;;27.70;76.10;;;;;;6247282;22;20011;-84
2021/09/11 12:46:34;;;;;;;8.40;6.28;;;27.60;76.70;;;;;;6247567;23;20075;-84
2021/09/11 12:49:02;;;;;;;11.57;5.65;;;27.60;75.70;;;;;;6247058;22;20000;-85
2021/09/11 12:51:28;;;;;;;10.70;6.00;;;27.60;74.80;;;;;;6247394;22;19996;-85
2021/09/11 12:53:54;;;;;;;7.10;6.18;;;27.70;73.80;;;;;;6245662;23;20012;-82
2021/09/11 12:56:24;;;;;;;11.68;6.05;;;27.60;72.10;;;;;;6247056;22;20429;-82
2021/09/11 12:58:54;;;;;;;10.25;5.72;;;27.50;75.20;;;;;;6247055;22;20015;-84
2021/09/11 13:01:20;;;;;;;13.68;5.70;;;27.40;76.00;;;;;;6247261;22;20477;-88
2021/09/11 13:03:46;;;;;;;8.18;5.93;;;27.30;74.00;;;;;;6247420;23;20004;-88
2021/09/11 13:06:14;;;;;;;11.88;6.15;;;27.20;72.90;;;;;;6248066;22;20393;-88
2021/09/11 13:08:42;;;;;;;12.68;6.13;;;27.10;71.90;;;;;;6247481;22;20411;-88
2021/09/11 13:11:12;;;;;;;11.43;6.55;;;27.20;75.50;;;;;;6246663;22;20016;-85
2021/09/11 13:13:38;;;;;;;10.80;7.10;;;27.20;79.10;;;;;;6247511;22;20000;-84
2021/09/11 13:16:05;;;;;;;13.35;6.40;;;27.20;81.50;;;;;;6246984;22;20088;-83
2021/09/11 13:18:31;;;;;;;20.67;7.80;;;27.30;82.80;;;;;;6246295;22;20008;-83
2021/09/11 13:21:00;;;;;;;12.95;6.85;;;27.20;79.50;;;;;;6246198;22;20067;-89
2021/09/11 13:23:26;;;;;;;16.15;6.15;;;27.10;80.00;;;;;;6246453;22;20004;-86
2021/09/11 13:25:52;;;;;;;11.00;6.68;;;27.10;78.70;;;;;;6246106;22;20008;-86
2021/09/11 13:28:18;;;;;;;10.82;6.88;;;27.00;81.00;;;;;;6246044;23;19996;-86
2021/09/11 13:30:43;;;;;;;9.60;6.60;;;27.00;81.40;;;;;;6245958;23;20308;-85
2021/09/11 13:33:10;;;;;;;9.43;6.15;;;27.00;81.20;;;;;;6246682;23;20008;-86
2021/09/11 13:35:37;;;;;;;13.52;6.60;;;27.10;82.20;;;;;;6246785;22;20004;-86
2021/09/11 13:38:03;;;;;;;11.45;6.30;;;27.10;81.50;;;;;;6244876;23;20043;-84
2021/09/11 13:40:29;;;;;;;9.05;6.47;;;27.10;81.00;;;;;;6246710;22;20386;-84
2021/09/11 13:42:55;;;;;;;22.23;5.90;;;27.00;80.30;;;;;;6245165;23;20015;-86
2021/09/11 13:45:21;;;;;;;7.30;5.82;;;27.00;81.00;;;;;;6246644;22;20382;-84
2021/09/11 13:47:46;;;;;;;7.20;5.88;;;26.90;80.30;;;;;;6246394;23;20060;-84
2021/09/11 13:50:12;;;;;;;12.30;6.82;;;26.80;76.30;;;;;;6246663;23;20023;-84
2021/09/11 13:52:38;;;;;;;9.43;6.18;;;26.80;80.40;;;;;;6246465;23;20007;-85
2021/09/11 13:55:05;;;;;;;9.32;7.35;;;26.70;81.00;;;;;;6246431;22;20026;-84
2021/09/11 13:57:31;;;;;;;14.07;5.93;;;26.70;80.00;;;;;;6246845;22;20036;-85